Time;durP1;ratioP1;P1;durP2;ratioP2;P2;SDS_P1;SDS_P2;PMS_P1;PMS_P2;Temp;Humidity;BMP_temperature;BMP_pressure;BME280_temperature;BME280_humidity;BME280_pressure;Samples;Min_cycle;Max_cycle;Signal;HPM_P1;HPM_P2
2022/10/20 00:01:20;;;;;;;;;;;;;;;9.70;90.46;101742.16;5079052;28;20137;-73
2022/10/20 00:03:46;;;;;;;;;;;;;;;9.70;90.56;101744.75;5079343;28;19912;-73
2022/10/20 00:06:11;;;;;;;;;;;;;;;9.71;90.63;101741.22;5079023;28;20152;-73
2022/10/20 00:08:37;;;;;;;;;;;;;;;9.71;90.60;101732.53;5079198;28;19975;-73
2022/10/20 00:11:03;;;;;;;;;;;;;;;9.71;90.60;101717.69;5079356;28;19948;-73
2022/10/20 00:13:28;;;;;;;;;;;;;;;9.72;90.87;101713.34;5077864;28;19916;-73
2022/10/20 00:15:54;;;;;;;;;;;;;;;9.70;90.78;101707.28;5078823;28;20259;-73
2022/10/20 00:18:20;;;;;;;;;;;;;;;9.70;90.68;101713.38;5079450;28;19905;-73
2022/10/20 00:20:45;;;;;;;;;;;;;;;9.70;90.81;101712.53;5078930;28;19919;-73
2022/10/20 00:23:10;;;;;;;;;;;;;;;9.67;90.95;101708.22;5078814;28;19919;-73
2022/10/20 00:25:36;;;;;;;;;;;;;;;9.66;91.02;101703.88;5093578;28;19946;-73
2022/10/20 00:28:01;;;;;;;;;;;;;;;9.66;91.11;101700.38;5078069;28;19980;-73
2022/10/20 00:30:26;;;;;;;;;;;;;;;9.66;91.37;101695.16;5078745;28;19927;-73
2022/10/20 00:32:51;;;;;;;;;;;;;;;9.66;91.33;101682.97;5079024;28;19967;-73
2022/10/20 00:35:17;;;;;;;;;;;;;;;9.66;91.14;101685.59;5078461;28;19923;-73
2022/10/20 00:37:42;;;;;;;;;;;;;;;9.67;91.35;101689.03;5078831;28;19911;-73
2022/10/20 00:40:07;;;;;;;;;;;;;;;9.67;91.38;101689.91;5078797;28;20153;-73
2022/10/20 00:42:33;;;;;;;;;;;;;;;9.66;91.31;101690.81;5078556;28;19939;-73
2022/10/20 00:44:59;;;;;;;;;;;;;;;9.65;91.26;101696.94;5078956;28;19916;-73
2022/10/20 00:47:33;;;;;;;;;;;;;;;9.66;91.59;101698.66;5077492;28;19938;-73
2022/10/20 00:50:02;;;;;;;;;;;;;;;9.68;91.62;101677.66;5078746;28;19904;-73
2022/10/20 00:52:27;;;;;;;;;;;;;;;9.67;91.50;101679.44;5078877;28;19918;-73
2022/10/20 00:54:53;;;;;;;;;;;;;;;9.69;91.67;101685.50;5078627;28;19905;-73
2022/10/20 00:57:18;;;;;;;;;;;;;;;9.70;91.65;101687.22;5077267;28;19912;-73
2022/10/20 00:59:43;;;;;;;;;;;;;;;9.72;91.43;101679.34;5079054;28;19908;-73
2022/10/20 01:05:03;;;;;;;;;;;;;;;9.73;91.72;101673.19;5075915;28;19939;-73
2022/10/20 01:07:28;;;;;;;;;;;;;;;9.74;91.63;101686.25;5097543;28;20203;-73
2022/10/20 01:09:54;;;;;;;;;;;;;;;9.76;91.41;101667.91;5081053;28;19916;-73
2022/10/20 01:12:45;;;;;;;;;;;;;;;9.78;91.38;101658.25;5096337;28;19943;-73
2022/10/20 01:15:10;;;;;;;;;;;;;;;9.78;91.21;101639.94;5081111;28;19987;-73
2022/10/20 01:17:45;;;;;;;;;;;;;;;9.79;91.11;101634.69;5080840;28;19912;-73
2022/10/20 01:20:38;;;;;;;;;;;;;;;9.76;91.17;101626.91;5081706;28;19949;-73
2022/10/20 01:23:06;;;;;;;;;;;;;;;9.73;91.38;101628.72;5081841;28;19912;-73
2022/10/20 01:26:00;;;;;;;;;;;;;;;9.71;91.58;101625.28;5076503;28;19920;-73
2022/10/20 01:28:36;;;;;;;;;;;;;;;9.71;91.91;101618.31;5081323;28;19916;-73
2022/10/20 01:31:05;;;;;;;;;;;;;;;9.72;91.92;101617.41;5082518;28;19999;-73
2022/10/20 01:33:36;;;;;;;;;;;;;;;9.72;91.82;101613.94;5081572;28;19923;-73
2022/10/20 01:36:26;;;;;;;;;;;;;;;9.71;91.59;101620.06;5097228;28;19957;-73
2022/10/20 01:38:59;;;;;;;;;;;;;;;9.71;91.60;101612.22;5081698;28;20100;-73
2022/10/20 01:41:43;;;;;;;;;;;;;;;9.72;91.79;101627.88;5081002;28;19912;-73
2022/10/20 01:44:10;;;;;;;;;;;;;;;9.73;91.44;101607.81;5081631;28;19923;-73
2022/10/20 01:46:38;;;;;;;;;;;;;;;9.72;91.59;101595.63;5080951;28;19908;-73
2022/10/20 01:49:03;;;;;;;;;;;;;;;9.70;91.54;101581.75;5080482;28;19944;-73
2022/10/20 01:51:28;;;;;;;;;;;;;;;9.68;91.68;101570.44;5081446;28;19958;-73
2022/10/20 01:53:54;;;;;;;;;;;;;;;9.67;91.85;101576.59;5081068;28;19919;-73
2022/10/20 01:56:25;;;;;;;;;;;;;;;9.66;91.97;101577.47;5080427;28;19983;-73
2022/10/20 01:59:11;;;;;;;;;;;;;;;9.65;92.04;101571.38;5081463;28;19912;-73
2022/10/20 02:01:45;;;;;;;;;;;;;;;9.61;92.42;101564.53;5059313;28;19923;-73
2022/10/20 02:04:10;;;;;;;;;;;;;;;9.60;92.71;101561.06;5073146;28;20308;-73
2022/10/20 02:06:36;;;;;;;;;;;;;;;9.59;93.00;101564.56;5060441;28;19920;-73
2022/10/20 02:09:04;;;;;;;;;;;;;;;9.59;93.00;101567.16;5060921;28;19980;-73
2022/10/20 02:11:41;;;;;;;;;;;;;;;9.60;92.89;101558.44;5059835;28;19987;-73
2022/10/20 02:14:09;;;;;;;;;;;;;;;9.61;92.78;101554.91;5061162;28;19924;-73
2022/10/20 02:16:39;;;;;;;;;;;;;;;9.63;92.88;101551.41;5060388;28;19913;-73
2022/10/20 02:19:06;;;;;;;;;;;;;;;9.63;92.41;101540.94;5061032;28;19912;-73
2022/10/20 02:21:31;;;;;;;;;;;;;;;9.63;92.50;101526.09;5060608;28;19941;-73
2022/10/20 02:23:59;;;;;;;;;;;;;;;9.61;92.63;101520.06;5060983;28;19927;-73
2022/10/20 02:26:24;;;;;;;;;;;;;;;9.60;92.24;101507.88;5060506;28;19969;-73
2022/10/20 02:28:55;;;;;;;;;;;;;;;9.59;92.41;101500.94;5060887;28;20179;-73
2022/10/20 02:31:21;;;;;;;;;;;;;;;9.57;92.63;101493.13;5060272;28;19908;-73
2022/10/20 02:33:46;;;;;;;;;;;;;;;9.56;92.74;101493.16;5060614;28;20305;-73
2022/10/20 02:36:16;;;;;;;;;;;;;;;9.57;92.61;101487.06;5060305;28;19976;-73
2022/10/20 02:38:41;;;;;;;;;;;;;;;9.54;93.02;101481.91;5060287;28;20043;-73
2022/10/20 02:41:06;;;;;;;;;;;;;;;9.55;92.89;101480.97;5060473;28;19994;-73
2022/10/20 02:43:32;;;;;;;;;;;;;;;9.53;93.02;101469.69;5074996;28;19954;-73
2022/10/20 02:45:57;;;;;;;;;;;;;;;9.52;93.21;101468.00;5075727;28;19905;-73
2022/10/20 02:48:22;;;;;;;;;;;;;;;9.51;93.33;101464.50;5059794;28;19917;-73
2022/10/20 02:50:47;;;;;;;;;;;;;;;9.52;93.29;101462.78;5060660;28;19935;-73
2022/10/20 02:53:13;;;;;;;;;;;;;;;9.52;93.40;101466.25;5060169;28;20349;-73
2022/10/20 02:55:38;;;;;;;;;;;;;;;9.53;93.42;101464.47;5060015;28;19916;-73
2022/10/20 02:58:03;;;;;;;;;;;;;;;9.54;93.27;101453.13;5059266;28;19922;-73
2022/10/20 03:00:30;;;;;;;;;;;;;;;9.53;93.39;101454.91;5059618;28;19919;-73
2022/10/20 03:02:55;;;;;;;;;;;;;;;9.52;93.75;101440.09;5073197;28;19980;-73
2022/10/20 03:05:20;;;;;;;;;;;;;;;9.53;93.51;101446.16;5057456;28;19924;-73
2022/10/20 03:07:46;;;;;;;;;;;;;;;9.54;93.51;101440.06;5057924;28;19920;-73
2022/10/20 03:10:11;;;;;;;;;;;;;;;9.54;93.54;101440.06;5072820;28;19983;-73
2022/10/20 03:12:36;;;;;;;;;;;;;;;9.54;93.90;101426.97;5057477;28;19919;-73
2022/10/20 03:15:02;;;;;;;;;;;;;;;9.52;94.07;101418.31;5073213;28;20275;-73
2022/10/20 03:17:27;;;;;;;;;;;;;;;9.51;94.18;101416.59;5057010;28;19948;-73
2022/10/20 03:19:52;;;;;;;;;;;;;;;9.50;94.09;101415.75;5057945;28;19916;-73
2022/10/20 03:22:17;;;;;;;;;;;;;;;9.48;94.16;101411.44;5055142;28;19908;-73
2022/10/20 03:24:43;;;;;;;;;;;;;;;9.48;94.66;101414.06;5072549;28;19921;-73
2022/10/20 03:27:08;;;;;;;;;;;;;;;9.48;94.78;101411.44;5057642;28;19988;-73
2022/10/20 03:29:33;;;;;;;;;;;;;;;9.48;94.64;101407.09;5057009;28;19912;-73
2022/10/20 03:31:59;;;;;;;;;;;;;;;9.50;94.81;101417.50;5057570;28;19920;-73
2022/10/20 03:34:24;;;;;;;;;;;;;;;9.51;94.99;101413.97;5082586;28;19978;-73
2022/10/20 03:36:49;;;;;;;;;;;;;;;9.52;94.85;101423.56;5077395;28;19909;-73
2022/10/20 03:39:15;;;;;;;;;;;;;;;9.52;95.11;101413.09;5077101;28;19973;-73
2022/10/20 03:41:40;;;;;;;;;;;;;;;9.54;95.45;101400.84;5092703;28;19912;-73
2022/10/20 03:44:05;;;;;;;;;;;;;;;9.54;95.09;101386.00;5077324;28;20037;-73
2022/10/20 03:46:31;;;;;;;;;;;;;;;9.55;95.05;101386.84;5092682;28;19989;-73
2022/10/20 03:48:56;;;;;;;;;;;;;;;9.53;95.23;101386.91;5077334;28;19912;-73
2022/10/20 03:51:22;;;;;;;;;;;;;;;9.54;95.25;101390.38;5092477;28;19916;-73
2022/10/20 03:53:47;;;;;;;;;;;;;;;9.54;95.53;101400.84;5077258;28;19975;-73
2022/10/20 03:56:15;;;;;;;;;;;;;;;9.56;95.76;101407.72;5077273;28;19939;-73
2022/10/20 03:58:40;;;;;;;;;;;;;;;9.57;95.75;101414.69;5092658;28;20227;-73
2022/10/20 04:01:08;;;;;;;;;;;;;;;9.59;95.59;101412.88;5092914;28;19931;-73
2022/10/20 04:03:33;;;;;;;;;;;;;;;9.62;95.51;101406.69;5076458;28;20207;-73
2022/10/20 04:05:58;;;;;;;;;;;;;;;9.64;95.34;101404.91;5077128;28;19919;-73
2022/10/20 04:08:23;;;;;;;;;;;;;;;9.67;95.55;101390.88;5076564;28;19947;-73
2022/10/20 04:10:49;;;;;;;;;;;;;;;9.68;95.29;101385.63;5077056;28;20248;-73
2022/10/20 04:13:14;;;;;;;;;;;;;;;9.68;95.44;101388.25;5077102;28;19916;-73
2022/10/20 04:15:39;;;;;;;;;;;;;;;9.69;95.41;101384.69;5092693;28;19947;-73
2022/10/20 04:18:04;;;;;;;;;;;;;;;9.70;95.96;101393.44;5075755;28;20018;-73
2022/10/20 04:20:30;;;;;;;;;;;;;;;9.70;96.04;101389.03;5076800;28;19991;-73
2022/10/20 04:22:55;;;;;;;;;;;;;;;9.71;95.88;101384.66;5076951;28;19919;-73
2022/10/20 04:25:20;;;;;;;;;;;;;;;9.72;96.21;101378.53;5076172;28;19925;-73
2022/10/20 04:27:45;;;;;;;;;;;;;;;9.72;96.29;101363.69;5040293;28;19991;-73
2022/10/20 04:30:11;;;;;;;;;;;;;;;9.72;96.38;101361.09;5036846;28;19909;-73
2022/10/20 04:32:36;;;;;;;;;;;;;;;9.71;96.75;101351.50;5036678;28;19955;-73
2022/10/20 04:35:01;;;;;;;;;;;;;;;9.72;96.84;101339.31;5069348;28;20231;-73
2022/10/20 04:37:27;;;;;;;;;;;;;;;9.72;96.84;101336.69;5080147;28;19979;-73
2022/10/20 04:39:52;;;;;;;;;;;;;;;9.71;96.89;101335.81;5096460;28;20212;-73
2022/10/20 04:42:18;;;;;;;;;;;;;;;9.72;96.94;101348.00;5080169;28;19913;-73
2022/10/20 04:44:43;;;;;;;;;;;;;;;9.72;97.04;101345.38;5080369;28;19916;-73
2022/10/20 04:47:08;;;;;;;;;;;;;;;9.74;97.09;101350.59;5079400;28;19909;-73
2022/10/20 04:49:34;;;;;;;;;;;;;;;9.75;97.25;101363.63;5079794;28;19987;-73
2022/10/20 04:51:59;;;;;;;;;;;;;;;9.76;97.19;101369.69;5080712;28;19985;-73
2022/10/20 04:54:24;;;;;;;;;;;;;;;9.79;97.34;101367.00;5079892;28;19958;-73
2022/10/20 04:56:50;;;;;;;;;;;;;;;9.81;97.06;101354.72;5080489;28;19927;-73
2022/10/20 04:59:15;;;;;;;;;;;;;;;9.83;97.26;101350.31;5095633;28;19977;-73
2022/10/20 05:01:40;;;;;;;;;;;;;;;9.84;96.98;101328.50;5064561;28;20133;-73
2022/10/20 05:04:05;;;;;;;;;;;;;;;9.84;97.14;101310.19;5067556;28;19913;-73
2022/10/20 05:06:31;;;;;;;;;;;;;;;9.84;97.18;101293.59;5079637;28;19924;-73
2022/10/20 05:08:58;;;;;;;;;;;;;;;9.84;97.06;101304.94;5080308;28;20142;-73
2022/10/20 05:11:24;;;;;;;;;;;;;;;9.84;96.94;101319.78;5078013;28;19916;-73
2022/10/20 05:13:50;;;;;;;;;;;;;;;9.85;97.24;101317.13;5080030;28;20199;-73
2022/10/20 05:16:16;;;;;;;;;;;;;;;9.87;97.34;101319.69;5079593;28;19904;-73
2022/10/20 05:18:42;;;;;;;;;;;;;;;9.88;97.18;101314.41;5079879;28;19912;-73
2022/10/20 05:21:08;;;;;;;;;;;;;;;9.89;97.35;101302.19;5079818;28;19982;-73
2022/10/20 05:23:33;;;;;;;;;;;;;;;9.90;97.25;101288.22;5079386;28;19963;-73
2022/10/20 05:26:02;;;;;;;;;;;;;;;9.91;96.97;101297.75;5079369;28;19927;-73
2022/10/20 05:28:28;;;;;;;;;;;;;;;9.92;97.03;101291.63;5079283;28;19968;-73
2022/10/20 05:30:53;;;;;;;;;;;;;;;9.94;97.26;101293.28;5079709;28;20208;-73
2022/10/20 05:33:18;;;;;;;;;;;;;;;9.95;97.08;101288.91;5077796;28;19965;-73
2022/10/20 05:35:44;;;;;;;;;;;;;;;9.95;97.12;101276.69;5079559;28;19912;-73
2022/10/20 05:38:09;;;;;;;;;;;;;;;9.95;97.16;101276.69;5095087;28;19924;-73
2022/10/20 05:40:34;;;;;;;;;;;;;;;9.94;97.28;101261.88;5078763;28;19908;-73
2022/10/20 05:42:59;;;;;;;;;;;;;;;9.94;97.20;101261.88;5079522;28;19939;-73
2022/10/20 05:45:25;;;;;;;;;;;;;;;9.94;97.13;101274.13;5078270;28;19921;-73
2022/10/20 05:47:50;;;;;;;;;;;;;;;9.94;97.52;101267.13;5094655;28;19920;-73
2022/10/20 05:50:15;;;;;;;;;;;;;;;9.94;97.30;101247.97;5079162;28;19912;-73
2022/10/20 05:52:40;;;;;;;;;;;;;;;9.94;97.70;101264.50;5079158;28;19920;-73
2022/10/20 05:55:06;;;;;;;;;;;;;;;9.95;97.67;101257.50;5078026;28;20145;-73
2022/10/20 05:57:31;;;;;;;;;;;;;;;9.95;97.81;101266.22;5078747;28;19924;-73
2022/10/20 05:59:56;;;;;;;;;;;;;;;9.98;97.73;101267.88;5079279;28;19950;-73
2022/10/20 06:02:22;;;;;;;;;;;;;;;9.99;97.82;101264.38;5078279;28;19912;-73
2022/10/20 06:04:47;;;;;;;;;;;;;;;10.01;97.81;101248.63;5078506;28;20191;-73
2022/10/20 06:07:12;;;;;;;;;;;;;;;10.02;97.75;101255.56;5077251;28;19920;-73
2022/10/20 06:09:38;;;;;;;;;;;;;;;10.02;97.48;101252.94;5094517;28;19951;-73
2022/10/20 06:12:03;;;;;;;;;;;;;;;10.02;97.44;101264.25;5079124;28;19939;-73
2022/10/20 06:14:29;;;;;;;;;;;;;;;10.04;97.67;101258.97;5077586;28;19912;-73
2022/10/20 06:16:54;;;;;;;;;;;;;;;10.04;97.20;101253.75;5078817;28;20111;-73
2022/10/20 06:19:20;;;;;;;;;;;;;;;10.03;97.46;101247.66;5078166;28;19912;-73
2022/10/20 06:21:45;;;;;;;;;;;;;;;10.03;97.54;101246.81;5078817;28;19912;-73
2022/10/20 06:24:11;;;;;;;;;;;;;;;10.03;97.49;101252.91;5077096;28;19948;-73
2022/10/20 06:26:36;;;;;;;;;;;;;;;10.05;97.61;101245.00;5078343;28;19973;-73
2022/10/20 06:29:03;;;;;;;;;;;;;;;10.05;97.51;101248.47;5078643;28;19946;-73
2022/10/20 06:31:29;;;;;;;;;;;;;;;10.06;97.60;101254.53;5078032;28;19912;-73
2022/10/20 06:33:55;;;;;;;;;;;;;;;10.07;97.66;101267.59;5078369;28;19947;-73
2022/10/20 06:36:21;;;;;;;;;;;;;;;10.07;97.55;101270.22;5077722;28;19912;-73
2022/10/20 06:38:47;;;;;;;;;;;;;;;10.09;97.51;101270.16;5078391;28;19934;-73
2022/10/20 06:41:14;;;;;;;;;;;;;;;10.09;97.73;101259.69;5077621;28;20207;-73
2022/10/20 06:43:40;;;;;;;;;;;;;;;10.09;97.47;101252.69;5078076;28;20138;-73
2022/10/20 06:46:06;;;;;;;;;;;;;;;10.10;97.52;101246.56;5076791;28;19947;-73
2022/10/20 06:48:32;;;;;;;;;;;;;;;10.12;97.70;101246.53;5062120;28;19921;-73
2022/10/20 06:50:59;;;;;;;;;;;;;;;10.11;97.56;101250.88;5058121;28;19912;-73
2022/10/20 06:53:24;;;;;;;;;;;;;;;10.12;97.55;101242.13;5057489;28;19943;-73
2022/10/20 06:55:56;;;;;;;;;;;;;;;10.13;97.91;101238.63;5058167;28;19909;-73
2022/10/20 06:58:21;;;;;;;;;;;;;;;10.13;97.77;101238.63;5057515;28;19920;-73
2022/10/20 07:00:46;;;;;;;;;;;;;;;10.14;97.65;101242.09;5056098;28;19908;-73
2022/10/20 07:03:11;;;;;;;;;;;;;;;10.14;97.75;101229.00;5072616;28;20223;-74
2022/10/20 07:05:37;;;;;;;;;;;;;;;10.15;97.91;101225.47;5076179;28;19916;-73
2022/10/20 07:08:02;;;;;;;;;;;;;;;10.14;97.95;101232.47;5078048;28;20006;-73
2022/10/20 07:10:27;;;;;;;;;;;;;;;10.16;97.81;101237.66;5092813;28;19920;-73
2022/10/20 07:12:53;;;;;;;;;;;;;;;10.17;98.19;101237.63;5076487;28;20235;-73
2022/10/20 07:15:19;;;;;;;;;;;;;;;10.19;98.16;101234.94;5076102;28;20266;-73
2022/10/20 07:17:44;;;;;;;;;;;;;;;10.19;98.01;101224.47;5077061;28;19908;-73
2022/10/20 07:20:09;;;;;;;;;;;;;;;10.19;98.01;101220.09;5057327;28;19920;-73
2022/10/20 07:22:35;;;;;;;;;;;;;;;10.21;98.38;101216.56;5071186;28;19916;-73
2022/10/20 07:25:05;;;;;;;;;;;;;;;10.21;98.63;101230.50;5056740;28;19924;-73
2022/10/20 07:27:30;;;;;;;;;;;;;;;10.22;98.45;101236.59;5072112;28;19926;-73
2022/10/20 07:29:55;;;;;;;;;;;;;;;10.24;98.73;101234.78;5057279;28;19927;-73
2022/10/20 07:32:21;;;;;;;;;;;;;;;10.25;98.53;101229.50;5055797;28;19948;-74
2022/10/20 07:34:46;;;;;;;;;;;;;;;10.26;98.57;101227.72;5070355;28;19916;-73
2022/10/20 07:37:11;;;;;;;;;;;;;;;10.27;98.79;101208.50;5077011;28;19916;-74
2022/10/20 07:39:37;;;;;;;;;;;;;;;10.27;98.97;101204.13;5076988;28;19920;-73
2022/10/20 07:42:02;;;;;;;;;;;;;;;10.28;99.02;101220.72;5076945;28;19966;-73
2022/10/20 07:44:27;;;;;;;;;;;;;;;10.29;98.87;101227.63;5076599;28;19931;-73
2022/10/20 07:46:52;;;;;;;;;;;;;;;10.30;99.08;101235.44;5077000;28;19931;-73
2022/10/20 07:49:18;;;;;;;;;;;;;;;10.31;98.86;101237.16;5065965;28;19921;-73
2022/10/20 07:51:43;;;;;;;;;;;;;;;10.33;99.07;101234.50;5079659;28;19914;-73
2022/10/20 07:54:10;;;;;;;;;;;;;;;10.36;98.92;101237.03;5055818;28;20236;-73
2022/10/20 07:56:39;;;;;;;;;;;;;;;10.36;99.10;101239.66;5070674;28;19928;-73
2022/10/20 07:59:05;;;;;;;;;;;;;;;10.37;99.06;101228.28;5054128;28;19905;-73
2022/10/20 08:01:31;;;;;;;;;;;;;;;10.38;99.21;101237.81;5056380;28;19905;-74
2022/10/20 08:03:56;;;;;;;;;;;;;;;10.40;98.80;101227.31;5056273;28;19944;-73
2022/10/20 08:06:21;;;;;;;;;;;;;;;10.41;99.05;101224.66;5055141;28;19944;-73
2022/10/20 08:08:46;;;;;;;;;;;;;;;10.43;98.83;101225.44;5055790;28;20023;-73
2022/10/20 08:11:12;;;;;;;;;;;;;;;10.45;98.98;101226.25;5058089;28;19958;-73
2022/10/20 08:13:39;;;;;;;;;;;;;;;10.46;98.88;101219.22;5058225;28;19947;-74
2022/10/20 08:16:05;;;;;;;;;;;;;;;10.47;98.84;101218.34;5060310;28;20247;-73
2022/10/20 08:18:31;;;;;;;;;;;;;;;10.50;99.01;101223.47;5063461;28;19912;-73
2022/10/20 08:21:12;;;;;;;;;;;;;;;10.50;98.95;101221.72;5063223;28;19916;-73
2022/10/20 08:23:38;;;;;;;;;;;;;;;10.51;99.11;101212.97;5059998;28;19982;-73
2022/10/20 08:26:04;;;;;;;;;;;;;;;10.52;99.12;101209.41;5057670;28;19984;-73
2022/10/20 08:28:29;;;;;;;;;;;;;;;10.55;99.27;101213.69;5059711;28;19917;-74
2022/10/20 08:30:54;;;;;;;;;;;;;;;10.55;99.48;101218.91;5084715;28;20175;-74
2022/10/20 08:33:20;;;;;;;;;;;;;;;10.57;99.45;101204.03;5072453;28;20136;-73
2022/10/20 08:35:45;;;;;;;;;;;;;;;10.60;99.75;101200.44;5068397;28;20119;-73
2022/10/20 08:38:10;;;;;;;;;;;;;;;10.61;99.87;101194.31;5064321;28;19905;-73
2022/10/20 08:40:38;;;;;;;;;;;;;;;10.62;99.95;101194.22;5060582;28;19920;-73
2022/10/20 08:43:03;;;;;;;;;;;;;;;10.64;100.00;101196.78;5061559;28;19944;-73
2022/10/20 08:45:28;;;;;;;;;;;;;;;10.65;100.00;101188.88;5072674;28;19916;-74
2022/10/20 08:47:57;;;;;;;;;;;;;;;10.66;100.00;101181.88;5059639;28;19912;-73
2022/10/20 08:50:26;;;;;;;;;;;;;;;10.68;100.00;101186.16;5059769;28;19916;-73
2022/10/20 08:52:53;;;;;;;;;;;;;;;10.69;100.00;101181.78;5059750;28;19912;-73
2022/10/20 08:55:25;;;;;;;;;;;;;;;10.70;100.00;101186.97;5059270;28;19905;-74
2022/10/20 08:57:51;;;;;;;;;;;;;;;10.72;100.00;101192.16;5057466;28;19912;-73
2022/10/20 09:00:18;;;;;;;;;;;;;;;10.74;100.00;101178.09;5059814;28;19917;-73
2022/10/20 09:02:44;;;;;;;;;;;;;;;10.76;100.00;101175.41;5063542;28;20272;-74
2022/10/20 09:05:10;;;;;;;;;;;;;;;10.78;100.00;101177.97;5072264;28;19928;-73
2022/10/20 09:07:37;;;;;;;;;;;;;;;10.79;100.00;101172.69;5060955;28;19912;-74
2022/10/20 09:10:14;;;;;;;;;;;;;;;10.81;100.00;101170.88;5058252;28;19981;-74
2022/10/20 09:12:41;;;;;;;;;;;;;;;10.83;100.00;101171.66;5065889;28;19924;-74
2022/10/20 09:15:08;;;;;;;;;;;;;;;10.85;100.00;101169.00;5061434;28;20223;-73
2022/10/20 09:17:34;;;;;;;;;;;;;;;10.86;100.00;101160.19;5058507;28;19912;-74
2022/10/20 09:20:00;;;;;;;;;;;;;;;10.88;100.00;101154.00;5078701;28;19921;-73
2022/10/20 09:22:27;;;;;;;;;;;;;;;10.90;100.00;101140.84;5058074;28;19917;-74
2022/10/20 09:24:55;;;;;;;;;;;;;;;10.91;100.00;101127.69;5058067;28;19974;-73
2022/10/20 09:27:30;;;;;;;;;;;;;;;10.94;100.00;101138.06;5058250;28;19987;-74
2022/10/20 09:29:55;;;;;;;;;;;;;;;10.95;100.00;101134.53;5058218;28;19919;-74
2022/10/20 09:32:30;;;;;;;;;;;;;;;10.97;100.00;101134.47;5057067;28;19913;-74
2022/10/20 09:35:14;;;;;;;;;;;;;;;11.00;100.00;101142.19;5086845;28;20213;-73
2022/10/20 09:37:40;;;;;;;;;;;;;;;11.02;100.00;101145.63;5057889;28;19919;-74
2022/10/20 09:40:12;;;;;;;;;;;;;;;11.03;100.00;101149.97;5058491;28;19936;-74
2022/10/20 09:42:39;;;;;;;;;;;;;;;11.06;100.00;101162.97;5058475;28;19913;-74
2022/10/20 09:45:07;;;;;;;;;;;;;;;11.09;100.00;101160.19;5057786;28;19980;-74
2022/10/20 09:47:33;;;;;;;;;;;;;;;11.11;100.00;101163.66;5058901;28;19979;-74
2022/10/20 09:50:00;;;;;;;;;;;;;;;11.13;100.00;101150.44;5068446;28;20209;-73
2022/10/20 09:52:33;;;;;;;;;;;;;;;11.14;100.00;101132.06;5058218;28;19920;-74
2022/10/20 09:55:00;;;;;;;;;;;;;;;11.19;100.00;101137.13;5057724;28;19913;-74
2022/10/20 09:57:26;;;;;;;;;;;;;;;11.22;100.00;101136.16;5057478;28;19913;-74
2022/10/20 09:59:52;;;;;;;;;;;;;;;11.23;100.00;101122.13;5058002;28;19919;-74
2022/10/20 10:02:20;;;;;;;;;;;;;;;11.24;100.00;101129.94;5059991;28;19917;-74
2022/10/20 10:04:47;;;;;;;;;;;;;;;11.27;100.00;101137.69;5070074;28;19916;-74
2022/10/20 10:07:25;;;;;;;;;;;;;;;11.30;100.00;101128.84;5058209;28;19947;-74
2022/10/20 10:09:56;;;;;;;;;;;;;;;11.33;100.00;101126.09;5069102;28;20246;-73
2022/10/20 10:12:22;;;;;;;;;;;;;;;11.36;100.00;101117.28;5057543;28;19904;-74
2022/10/20 10:14:53;;;;;;;;;;;;;;;11.38;100.00;101115.44;5057444;28;20223;-74
2022/10/20 10:17:29;;;;;;;;;;;;;;;11.40;100.00;101093.47;5041453;28;20258;-74
2022/10/20 10:19:54;;;;;;;;;;;;;;;11.43;100.00;101071.53;5055414;28;20204;-74
2022/10/20 10:22:20;;;;;;;;;;;;;;;11.48;100.00;101064.34;5057638;28;19978;-74
2022/10/20 10:24:47;;;;;;;;;;;;;;;11.49;100.00;101063.41;5059651;28;19920;-74
2022/10/20 10:27:18;;;;;;;;;;;;;;;11.52;100.00;101073.78;5057541;28;20006;-74
2022/10/20 10:29:43;;;;;;;;;;;;;;;11.53;100.00;101068.47;5072684;28;19904;-74
2022/10/20 10:32:25;;;;;;;;;;;;;;;11.56;100.00;101057.00;5057179;28;19943;-74
2022/10/20 10:35:01;;;;;;;;;;;;;;;11.59;100.00;101054.25;5070217;28;20253;-74
2022/10/20 10:37:27;;;;;;;;;;;;;;;11.62;100.00;101058.50;5060849;28;19935;-74
2022/10/20 10:39:53;;;;;;;;;;;;;;;11.63;100.00;101047.09;5057095;28;19982;-74
2022/10/20 10:42:30;;;;;;;;;;;;;;;11.67;100.00;101048.69;5057000;28;20167;-74
2022/10/20 10:45:14;;;;;;;;;;;;;;;11.70;100.00;101043.31;5063711;28;20257;-74
2022/10/20 10:47:42;;;;;;;;;;;;;;;11.72;100.00;101039.69;5056710;28;19922;-74
2022/10/20 10:50:26;;;;;;;;;;;;;;;11.76;100.00;101032.53;5057894;28;19940;-74
2022/10/20 10:53:10;;;;;;;;;;;;;;;11.79;100.00;101032.41;5072472;28;20211;-74
2022/10/20 10:55:59;;;;;;;;;;;;;;;11.83;100.00;101038.41;5071526;28;20171;-74
2022/10/20 10:58:42;;;;;;;;;;;;;;;11.85;100.00;101037.41;5056767;28;19904;-74
2022/10/20 11:01:26;;;;;;;;;;;;;;;11.87;100.00;101034.72;5056684;28;19932;-74
2022/10/20 11:03:57;;;;;;;;;;;;;;;11.90;100.00;101032.00;5062813;28;19919;-74
2022/10/20 11:06:43;;;;;;;;;;;;;;;11.93;100.00;101044.97;5065131;28;19923;-74
2022/10/20 11:09:27;;;;;;;;;;;;;;;11.95;100.00;101058.03;5056908;28;20196;-74
2022/10/20 11:12:05;;;;;;;;;;;;;;;11.99;100.00;101055.22;5069415;28;19920;-74
2022/10/20 11:14:48;;;;;;;;;;;;;;;12.02;100.00;101047.19;5083269;28;20003;-74
2022/10/20 11:17:19;;;;;;;;;;;;;;;12.05;100.00;101036.56;5056672;28;20226;-74
2022/10/20 11:20:05;;;;;;;;;;;;;;;12.08;100.00;101027.72;5056601;28;20252;-74
2022/10/20 11:22:36;;;;;;;;;;;;;;;12.14;100.00;101031.84;5049614;28;19920;-74
2022/10/20 11:25:20;;;;;;;;;;;;;;;12.20;100.00;101047.31;5055686;28;20139;-74
2022/10/20 11:27:46;;;;;;;;;;;;;;;12.24;100.00;101062.88;5056761;28;20034;-74
2022/10/20 11:30:14;;;;;;;;;;;;;;;12.26;100.00;101062.78;5063025;28;20142;-74
2022/10/20 11:32:48;;;;;;;;;;;;;;;12.28;100.00;101059.19;5061846;28;19951;-74
2022/10/20 11:35:17;;;;;;;;;;;;;;;12.29;100.00;101070.53;5071639;28;20111;-74
2022/10/20 11:37:48;;;;;;;;;;;;;;;12.30;100.00;101056.50;5072074;28;20010;-74
2022/10/20 11:40:20;;;;;;;;;;;;;;;12.32;100.00;101061.69;5055322;28;19912;-74
2022/10/20 11:43:17;;;;;;;;;;;;;;;12.32;100.00;101073.03;5067104;28;19912;-74
2022/10/20 11:46:01;;;;;;;;;;;;;;;12.32;100.00;101082.69;5034850;28;19916;-74
2022/10/20 11:48:26;;;;;;;;;;;;;;;12.33;100.00;101072.09;5071278;28;20194;-74
2022/10/20 11:51:02;;;;;;;;;;;;;;;12.34;100.00;101071.19;5064373;28;19919;-74
2022/10/20 11:53:42;;;;;;;;;;;;;;;12.37;100.00;101067.56;5056190;28;19916;-74
2022/10/20 11:56:08;;;;;;;;;;;;;;;12.39;100.00;101057.88;5055737;28;19912;-74
2022/10/20 11:58:36;;;;;;;;;;;;;;;12.40;100.00;101052.53;5054496;28;20179;-74
2022/10/20 12:01:01;;;;;;;;;;;;;;;12.45;100.00;101054.97;5055830;28;20194;-74
2022/10/20 12:03:26;;;;;;;;;;;;;;;12.47;100.00;101064.47;5055813;28;19980;-74
2022/10/20 12:05:52;;;;;;;;;;;;;;;12.49;100.00;101067.88;5054484;28;19986;-74
2022/10/20 12:08:23;;;;;;;;;;;;;;;12.52;100.00;101058.19;5065595;28;19996;-75
2022/10/20 12:10:54;;;;;;;;;;;;;;;12.55;100.00;101055.38;5066266;28;19919;-74
2022/10/20 12:13:29;;;;;;;;;;;;;;;12.58;100.00;101047.38;5066081;28;20057;-74
2022/10/20 12:15:54;;;;;;;;;;;;;;;12.58;100.00;101042.13;5058319;28;19948;-74
2022/10/20 12:18:28;;;;;;;;;;;;;;;12.59;100.00;101043.84;5053180;28;19939;-74
2022/10/20 12:20:55;;;;;;;;;;;;;;;12.60;100.00;101042.91;5053119;28;19916;-74
2022/10/20 12:23:39;;;;;;;;;;;;;;;12.62;100.00;101035.78;5058080;28;19924;-74
2022/10/20 12:26:24;;;;;;;;;;;;;;;12.62;100.00;101035.78;5065732;28;19924;-74
2022/10/20 12:28:52;;;;;;;;;;;;;;;12.64;100.00;101044.44;5052935;28;19916;-74
2022/10/20 12:31:17;;;;;;;;;;;;;;;12.65;100.00;101026.00;5054359;28;19913;-75
2022/10/20 12:33:48;;;;;;;;;;;;;;;12.66;100.00;101021.59;5057497;28;19917;-74
2022/10/20 12:36:16;;;;;;;;;;;;;;;12.71;100.00;101026.63;5060086;28;19948;-74
2022/10/20 12:38:43;;;;;;;;;;;;;;;12.73;100.00;101020.38;5054520;28;19920;-74
2022/10/20 12:41:11;;;;;;;;;;;;;;;12.76;100.00;101014.16;5072638;28;19928;-74
2022/10/20 12:43:46;;;;;;;;;;;;;;;12.81;100.00;101017.41;5052188;28;19905;-74
2022/10/20 12:46:17;;;;;;;;;;;;;;;12.83;100.00;101016.41;5052889;28;19920;-74